sensor_id;sensor_type;location;lat;lon;timestamp;pressure;altitude;pressure_sealevel;temperature;humidity
48790;BME280;41718;51.980;5.734;2023-05-23T00:02:30;101451.31;;;13.80;100.00
48790;BME280;41718;51.980;5.734;2023-05-23T00:07:32;101445.19;;;13.76;100.00
48790;BME280;41718;51.980;5.734;2023-05-23T00:12:33;101445.06;;;13.66;100.00
48790;BME280;41718;51.980;5.734;2023-05-23T00:17:35;101457.19;;;13.65;100.00
48790;BME280;41718;51.980;5.734;2023-05-23T00:22:38;101457.22;;;13.67;100.00
48790;BME280;41718;51.980;5.734;2023-05-23T00:27:43;101456.38;;;13.68;100.00
48790;BME280;41718;51.980;5.734;2023-05-23T00:32:44;101451.06;;;13.57;100.00
48790;BME280;41718;51.980;5.734;2023-05-23T00:37:46;101464.78;;;13.47;100.00
48790;BME280;41718;51.980;5.734;2023-05-23T00:42:50;101466.53;;;13.49;100.00
48790;BME280;41718;51.980;5.734;2023-05-23T00:47:52;101465.44;;;13.32;100.00
48790;BME280;41718;51.980;5.734;2023-05-23T00:52:55;101479.94;;;13.18;100.00
48790;BME280;41718;51.980;5.734;2023-05-23T00:57:58;101485.19;;;13.21;100.00
48790;BME280;41718;51.980;5.734;2023-05-23T01:02:59;101470.25;;;13.08;100.00
48790;BME280;41718;51.980;5.734;2023-05-23T01:08:02;101451.28;;;13.12;100.00
48790;BME280;41718;51.980;5.734;2023-05-23T01:13:28;101436.50;;;13.08;100.00
48790;BME280;41718;51.980;5.734;2023-05-23T01:18:42;101413.72;;;12.88;100.00
48790;BME280;41718;51.980;5.734;2023-05-23T01:29:14;101352.19;;;12.84;100.00
48790;BME280;41718;51.980;5.734;2023-05-23T01:34:18;101315.69;;;12.72;100.00
48790;BME280;41718;51.980;5.734;2023-05-23T01:39:22;101297.59;;;12.77;100.00
48790;BME280;41718;51.980;5.734;2023-05-23T01:44:23;101272.41;;;12.71;100.00
48790;BME280;41718;51.980;5.734;2023-05-23T01:49:25;101253.38;;;12.72;100.00
48790;BME280;41718;51.980;5.734;2023-05-23T01:54:28;101231.75;;;12.71;100.00
48790;BME280;41718;51.980;5.734;2023-05-23T01:59:30;101227.44;;;12.75;100.00
48790;BME280;41718;51.980;5.734;2023-05-23T02:04:31;101242.22;;;12.81;100.00
48790;BME280;41718;51.980;5.734;2023-05-23T02:09:33;101242.13;;;12.73;100.00
48790;BME280;41718;51.980;5.734;2023-05-23T02:14:35;101252.59;;;12.79;100.00
48790;BME280;41718;51.980;5.734;2023-05-23T02:19:37;101262.91;;;12.71;100.00
48790;BME280;41718;51.980;5.734;2023-05-23T02:24:39;101271.50;;;12.69;100.00
48790;BME280;41718;51.980;5.734;2023-05-23T02:29:41;101270.72;;;12.76;100.00
48790;BME280;41718;51.980;5.734;2023-05-23T02:34:42;101275.91;;;12.74;100.00
48790;BME280;41718;51.980;5.734;2023-05-23T02:39:46;101291.41;;;12.70;100.00
48790;BME280;41718;51.980;5.734;2023-05-23T02:44:48;101277.63;;;12.72;100.00
48790;BME280;41718;51.980;5.734;2023-05-23T02:49:49;101287.88;;;12.63;100.00
48790;BME280;41718;51.980;5.734;2023-05-23T02:54:51;101285.28;;;12.63;100.00
48790;BME280;41718;51.980;5.734;2023-05-23T02:59:52;101260.22;;;12.65;100.00
48790;BME280;41718;51.980;5.734;2023-05-23T03:04:54;101260.19;;;12.64;100.00
48790;BME280;41718;51.980;5.734;2023-05-23T03:09:56;101256.63;;;12.57;100.00
48790;BME280;41718;51.980;5.734;2023-05-23T03:14:58;101255.84;;;12.63;100.00
48790;BME280;41718;51.980;5.734;2023-05-23T03:19:59;101271.44;;;12.64;100.00
48790;BME280;41718;51.980;5.734;2023-05-23T03:25:01;101267.22;;;12.72;100.00
48790;BME280;41718;51.980;5.734;2023-05-23T03:30:03;101280.19;;;12.71;100.00
48790;BME280;41718;51.980;5.734;2023-05-23T03:35:05;101294.13;;;12.79;100.00
48790;BME280;41718;51.980;5.734;2023-05-23T03:40:07;101301.84;;;12.73;100.00
48790;BME280;41718;51.980;5.734;2023-05-23T03:45:10;101316.66;;;12.80;100.00
48790;BME280;41718;51.980;5.734;2023-05-23T03:50:11;101326.16;;;12.80;100.00
48790;BME280;41718;51.980;5.734;2023-05-23T03:55:13;101343.56;;;12.87;100.00
48790;BME280;41718;51.980;5.734;2023-05-23T04:00:14;101354.81;;;12.87;100.00
48790;BME280;41718;51.980;5.734;2023-05-23T04:05:16;101378.19;;;12.87;100.00
48790;BME280;41718;51.980;5.734;2023-05-23T04:10:18;101390.44;;;12.94;100.00
48790;BME280;41718;51.980;5.734;2023-05-23T04:15:19;101399.81;;;12.86;100.00
48790;BME280;41718;51.980;5.734;2023-05-23T04:20:21;101408.38;;;12.79;100.00
48790;BME280;41718;51.980;5.734;2023-05-23T04:25:23;101427.41;;;12.78;100.00
48790;BME280;41718;51.980;5.734;2023-05-23T04:30:24;101441.25;;;12.77;100.00
48790;BME280;41718;51.980;5.734;2023-05-23T04:35:26;101449.03;;;12.77;100.00
48790;BME280;41718;51.980;5.734;2023-05-23T04:40:30;101456.66;;;12.66;100.00
48790;BME280;41718;51.980;5.734;2023-05-23T04:45:32;101467.72;;;12.55;100.00
48790;BME280;41718;51.980;5.734;2023-05-23T04:50:34;101484.00;;;12.46;100.00
48790;BME280;41718;51.980;5.734;2023-05-23T04:55:36;101488.28;;;12.42;100.00
48790;BME280;41718;51.980;5.734;2023-05-23T05:00:38;101505.38;;;12.31;100.00
48790;BME280;41718;51.980;5.734;2023-05-23T05:05:40;101522.78;;;12.38;100.00
48790;BME280;41718;51.980;5.734;2023-05-23T05:10:41;101530.38;;;12.29;100.00
48790;BME280;41718;51.980;5.734;2023-05-23T05:15:43;101547.66;;;12.27;100.00
48790;BME280;41718;51.980;5.734;2023-05-23T05:20:45;101547.53;;;12.21;100.00
48790;BME280;41718;51.980;5.734;2023-05-23T05:25:47;101556.09;;;12.17;100.00
48790;BME280;41718;51.980;5.734;2023-05-23T05:30:48;101566.34;;;12.11;100.00
48790;BME280;41718;51.980;5.734;2023-05-23T05:35:54;101576.38;;;11.94;100.00
48790;BME280;41718;51.980;5.734;2023-05-23T05:40:56;101573.81;;;11.96;100.00
48790;BME280;41718;51.980;5.734;2023-05-23T05:45:57;101581.34;;;11.85;100.00
48790;BME280;41718;51.980;5.734;2023-05-23T05:50:59;101590.25;;;11.96;100.00
48790;BME280;41718;51.980;5.734;2023-05-23T05:56:01;101601.41;;;11.92;100.00
48790;BME280;41718;51.980;5.734;2023-05-23T06:01:03;101606.47;;;11.86;100.00
48790;BME280;41718;51.980;5.734;2023-05-23T06:06:06;101629.09;;;11.93;100.00
48790;BME280;41718;51.980;5.734;2023-05-23T06:11:09;101629.06;;;11.91;100.00
48790;BME280;41718;51.980;5.734;2023-05-23T06:16:10;101642.78;;;11.87;100.00
48790;BME280;41718;51.980;5.734;2023-05-23T06:21:12;101655.03;;;11.93;100.00
48790;BME280;41718;51.980;5.734;2023-05-23T06:26:13;101661.13;;;11.97;100.00
48790;BME280;41718;51.980;5.734;2023-05-23T06:31:15;101663.66;;;11.92;100.00
48790;BME280;41718;51.980;5.734;2023-05-23T06:36:16;101665.19;;;11.85;100.00
48790;BME280;41718;51.980;5.734;2023-05-23T06:41:18;101667.22;;;11.97;100.00
48790;BME280;41718;51.980;5.734;2023-05-23T06:46:19;101656.59;;;12.26;100.00
48790;BME280;41718;51.980;5.734;2023-05-23T06:51:21;101650.97;;;12.92;100.00
48790;BME280;41718;51.980;5.734;2023-05-23T06:56:23;101646.75;;;12.98;100.00
48790;BME280;41718;51.980;5.734;2023-05-23T07:01:25;101642.75;;;12.69;100.00
48790;BME280;41718;51.980;5.734;2023-05-23T07:06:27;101645.97;;;13.03;100.00
48790;BME280;41718;51.980;5.734;2023-05-23T07:11:28;101648.28;;;13.36;100.00
48790;BME280;41718;51.980;5.734;2023-05-23T07:16:30;101645.78;;;13.42;100.00
48790;BME280;41718;51.980;5.734;2023-05-23T07:21:32;101655.25;;;13.38;100.00
48790;BME280;41718;51.980;5.734;2023-05-23T07:26:34;101673.47;;;12.91;100.00
48790;BME280;41718;51.980;5.734;2023-05-23T07:31:35;101684.63;;;12.87;100.00
48790;BME280;41718;51.980;5.734;2023-05-23T07:36:37;101693.88;;;12.71;100.00
48790;BME280;41718;51.980;5.734;2023-05-23T07:41:41;101700.94;;;12.80;100.00
48790;BME280;41718;51.980;5.734;2023-05-23T07:46:42;101711.56;;;12.49;100.00
48790;BME280;41718;51.980;5.734;2023-05-23T07:51:44;101713.13;;;12.42;100.00
48790;BME280;41718;51.980;5.734;2023-05-23T07:56:45;101719.69;;;12.25;100.00
48790;BME280;41718;51.980;5.734;2023-05-23T08:01:47;101727.59;;;12.31;100.00
48790;BME280;41718;51.980;5.734;2023-05-23T08:06:51;101755.78;;;12.14;100.00
48790;BME280;41718;51.980;5.734;2023-05-23T08:12:06;101750.22;;;12.36;100.00
48790;BME280;41718;51.980;5.734;2023-05-23T08:17:10;101754.13;;;12.57;100.00
48790;BME280;41718;51.980;5.734;2023-05-23T08:22:12;101747.59;;;12.76;100.00
48790;BME280;41718;51.980;5.734;2023-05-23T08:27:14;101761.97;;;13.00;100.00
48790;BME280;41718;51.980;5.734;2023-05-23T08:32:15;101759.03;;;13.76;100.00
48790;BME280;41718;51.980;5.734;2023-05-23T08:37:17;101756.78;;;13.99;100.00
48790;BME280;41718;51.980;5.734;2023-05-23T08:42:18;101749.50;;;14.34;100.00
48790;BME280;41718;51.980;5.734;2023-05-23T08:47:20;101766.31;;;13.97;100.00
48790;BME280;41718;51.980;5.734;2023-05-23T08:52:24;101773.19;;;13.95;100.00
48790;BME280;41718;51.980;5.734;2023-05-23T08:57:26;101770.91;;;14.13;100.00
48790;BME280;41718;51.980;5.734;2023-05-23T09:02:29;101787.81;;;13.38;100.00
48790;BME280;41718;51.980;5.734;2023-05-23T09:07:33;101798.06;;;13.29;100.00
48790;BME280;41718;51.980;5.734;2023-05-23T09:12:34;101798.09;;;13.32;100.00
48790;BME280;41718;51.980;5.734;2023-05-23T09:17:39;101816.03;;;13.20;100.00
48790;BME280;41718;51.980;5.734;2023-05-23T09:22:45;101813.34;;;13.61;100.00
48790;BME280;41718;51.980;5.734;2023-05-23T09:27:47;101807.88;;;13.95;100.00
48790;BME280;41718;51.980;5.734;2023-05-23T09:32:58;101797.91;;;14.23;100.00
48790;BME280;41718;51.980;5.734;2023-05-23T09:38:06;101802.69;;;14.50;100.00
48790;BME280;41718;51.980;5.734;2023-05-23T09:43:08;101795.66;;;14.46;100.00
48790;BME280;41718;51.980;5.734;2023-05-23T09:48:13;101787.97;;;15.22;100.00
48790;BME280;41718;51.980;5.734;2023-05-23T09:53:14;101794.38;;;14.77;100.00
48790;BME280;41718;51.980;5.734;2023-05-23T09:58:18;101791.38;;;15.16;100.00
48790;BME280;41718;51.980;5.734;2023-05-23T10:03:25;101803.25;;;15.66;100.00
48790;BME280;41718;51.980;5.734;2023-05-23T10:08:43;101788.66;;;15.90;100.00
48790;BME280;41718;51.980;5.734;2023-05-23T10:13:48;101798.34;;;15.16;100.00
48790;BME280;41718;51.980;5.734;2023-05-23T10:18:55;101796.84;;;14.65;100.00
48790;BME280;41718;51.980;5.734;2023-05-23T10:24:03;101798.22;;;15.92;100.00
48790;BME280;41718;51.980;5.734;2023-05-23T10:29:06;101800.53;;;16.71;100.00
48790;BME280;41718;51.980;5.734;2023-05-23T10:34:14;101889.94;;;16.30;100.00
48790;BME280;41718;51.980;5.734;2023-05-23T10:39:27;101897.91;;;16.47;100.00
48790;BME280;41718;51.980;5.734;2023-05-23T10:44:33;101911.97;;;15.71;100.00
48790;BME280;41718;51.980;5.734;2023-05-23T10:49:38;101925.34;;;16.02;100.00
48790;BME280;41718;51.980;5.734;2023-05-23T10:54:42;101927.75;;;16.78;100.00
48790;BME280;41718;51.980;5.734;2023-05-23T10:59:45;101946.47;;;16.28;100.00
48790;BME280;41718;51.980;5.734;2023-05-23T11:05:22;101946.94;;;15.87;100.00
48790;BME280;41718;51.980;5.734;2023-05-23T11:10:25;101938.13;;;16.70;100.00
48790;BME280;41718;51.980;5.734;2023-05-23T11:15:40;101932.94;;;16.73;100.00
48790;BME280;41718;51.980;5.734;2023-05-23T11:20:43;101965.28;;;15.92;100.00
48790;BME280;41718;51.980;5.734;2023-05-23T11:25:50;101958.66;;;16.27;100.00
48790;BME280;41718;51.980;5.734;2023-05-23T11:30:52;101962.59;;;16.74;100.00
48790;BME280;41718;51.980;5.734;2023-05-23T11:35:54;101982.97;;;16.17;100.00
48790;BME280;41718;51.980;5.734;2023-05-23T11:40:55;101978.59;;;16.17;100.00
48790;BME280;41718;51.980;5.734;2023-05-23T11:45:57;101978.50;;;16.08;100.00
48790;BME280;41718;51.980;5.734;2023-05-23T11:51:07;101998.69;;;16.25;100.00
48790;BME280;41718;51.980;5.734;2023-05-23T11:56:09;101996.34;;;16.55;100.00
48790;BME280;41718;51.980;5.734;2023-05-23T12:01:11;102013.41;;;17.14;100.00
48790;BME280;41718;51.980;5.734;2023-05-23T12:06:17;102038.16;;;16.51;100.00
48790;BME280;41718;51.980;5.734;2023-05-23T12:11:19;102040.00;;;16.65;100.00
48790;BME280;41718;51.980;5.734;2023-05-23T12:16:21;102058.66;;;17.02;100.00
48790;BME280;41718;51.980;5.734;2023-05-23T12:21:24;102071.34;;;16.64;100.00
48790;BME280;41718;51.980;5.734;2023-05-23T12:26:27;102092.56;;;16.94;100.00
48790;BME280;41718;51.980;5.734;2023-05-23T12:31:28;102114.69;;;17.32;100.00
48790;BME280;41718;51.980;5.734;2023-05-23T12:36:30;102118.53;;;16.75;100.00
48790;BME280;41718;51.980;5.734;2023-05-23T12:41:44;102116.66;;;16.63;100.00
48790;BME280;41718;51.980;5.734;2023-05-23T12:46:45;102126.19;;;16.61;100.00
48790;BME280;41718;51.980;5.734;2023-05-23T12:51:47;102115.03;;;17.87;100.00
48790;BME280;41718;51.980;5.734;2023-05-23T12:56:49;102113.22;;;16.70;100.00
48790;BME280;41718;51.980;5.734;2023-05-23T13:01:50;102117.78;;;16.89;100.00
48790;BME280;41718;51.980;5.734;2023-05-23T13:06:52;102108.50;;;17.22;100.00
48790;BME280;41718;51.980;5.734;2023-05-23T13:11:53;102114.25;;;16.05;100.00
48790;BME280;41718;51.980;5.734;2023-05-23T13:16:55;102115.34;;;16.27;100.00
48790;BME280;41718;51.980;5.734;2023-05-23T13:21:57;102107.03;;;15.87;100.00
48790;BME280;41718;51.980;5.734;2023-05-23T13:26:58;102115.94;;;16.03;100.00
48790;BME280;41718;51.980;5.734;2023-05-23T13:32:00;102130.94;;;16.20;100.00
48790;BME280;41718;51.980;5.734;2023-05-23T13:37:01;102132.50;;;15.46;100.00
48790;BME280;41718;51.980;5.734;2023-05-23T13:42:03;102146.94;;;15.79;100.00
48790;BME280;41718;51.980;5.734;2023-05-23T13:47:14;102132.97;;;15.77;100.00
48790;BME280;41718;51.980;5.734;2023-05-23T13:52:16;102135.00;;;15.38;100.00
48790;BME280;41718;51.980;5.734;2023-05-23T13:57:17;102125.56;;;16.07;100.00
48790;BME280;41718;51.980;5.734;2023-05-23T14:02:19;102128.91;;;15.99;100.00
48790;BME280;41718;51.980;5.734;2023-05-23T14:07:21;102133.66;;;15.63;100.00
48790;BME280;41718;51.980;5.734;2023-05-23T14:12:23;102127.88;;;15.86;100.00
48790;BME280;41718;51.980;5.734;2023-05-23T14:17:25;102121.34;;;16.19;100.00
48790;BME280;41718;51.980;5.734;2023-05-23T14:22:27;102132.25;;;15.87;100.00
48790;BME280;41718;51.980;5.734;2023-05-23T14:27:28;102150.47;;;14.79;100.00
48790;BME280;41718;51.980;5.734;2023-05-23T14:32:30;102142.81;;;14.87;100.00
48790;BME280;41718;51.980;5.734;2023-05-23T14:37:36;102139.19;;;15.30;100.00
48790;BME280;41718;51.980;5.734;2023-05-23T14:42:37;102131.19;;;15.73;100.00
48790;BME280;41718;51.980;5.734;2023-05-23T14:47:39;102122.19;;;15.02;100.00
48790;BME280;41718;51.980;5.734;2023-05-23T14:52:43;102136.63;;;14.82;100.00
48790;BME280;41718;51.980;5.734;2023-05-23T14:57:44;102134.91;;;14.82;100.00
48790;BME280;41718;51.980;5.734;2023-05-23T15:02:46;102144.97;;;14.64;100.00
48790;BME280;41718;51.980;5.734;2023-05-23T15:07:47;102132.72;;;15.07;100.00
48790;BME280;41718;51.980;5.734;2023-05-23T15:12:49;102138.38;;;15.33;100.00
48790;BME280;41718;51.980;5.734;2023-05-23T15:17:50;102151.63;;;14.97;100.00
48790;BME280;41718;51.980;5.734;2023-05-23T15:22:52;102138.88;;;15.10;100.00
48790;BME280;41718;51.980;5.734;2023-05-23T15:27:54;102149.34;;;14.67;100.00
48790;BME280;41718;51.980;5.734;2023-05-23T15:32:59;102145.22;;;14.76;100.00
48790;BME280;41718;51.980;5.734;2023-05-23T15:38:02;102145.25;;;15.28;100.00
48790;BME280;41718;51.980;5.734;2023-05-23T15:43:03;102158.75;;;15.05;100.00
48790;BME280;41718;51.980;5.734;2023-05-23T15:48:05;102144.28;;;15.23;100.00
48790;BME280;41718;51.980;5.734;2023-05-23T15:53:06;102138.75;;;15.59;100.00
48790;BME280;41718;51.980;5.734;2023-05-23T15:58:09;102137.78;;;15.52;100.00
48790;BME280;41718;51.980;5.734;2023-05-23T16:03:11;102140.31;;;15.46;100.00
48790;BME280;41718;51.980;5.734;2023-05-23T16:08:13;102141.00;;;15.34;100.00
48790;BME280;41718;51.980;5.734;2023-05-23T16:13:14;102139.16;;;15.27;100.00
48790;BME280;41718;51.980;5.734;2023-05-23T16:18:18;102148.78;;;15.87;100.00
48790;BME280;41718;51.980;5.734;2023-05-23T16:23:22;102157.09;;;15.09;100.00
48790;BME280;41718;51.980;5.734;2023-05-23T16:28:26;102165.03;;;15.15;100.00
48790;BME280;41718;51.980;5.734;2023-05-23T16:33:30;102155.44;;;14.25;100.00
48790;BME280;41718;51.980;5.734;2023-05-23T16:38:32;102159.66;;;14.61;100.00
48790;BME280;41718;51.980;5.734;2023-05-23T16:43:33;102157.72;;;14.50;100.00
48790;BME280;41718;51.980;5.734;2023-05-23T16:48:35;102155.84;;;14.89;100.00
48790;BME280;41718;51.980;5.734;2023-05-23T16:53:36;102140.69;;;15.15;100.00
48790;BME280;41718;51.980;5.734;2023-05-23T16:58:38;102150.16;;;15.09;100.00
48790;BME280;41718;51.980;5.734;2023-05-23T17:03:39;102155.06;;;14.93;100.00
48790;BME280;41718;51.980;5.734;2023-05-23T17:08:41;102168.09;;;14.93;100.00
48790;BME280;41718;51.980;5.734;2023-05-23T17:13:43;102158.41;;;14.42;100.00
48790;BME280;41718;51.980;5.734;2023-05-23T17:18:45;102163.41;;;14.32;100.00
48790;BME280;41718;51.980;5.734;2023-05-23T17:23:46;102159.16;;;14.38;100.00
48790;BME280;41718;51.980;5.734;2023-05-23T17:28:48;102150.34;;;15.20;100.00
48790;BME280;41718;51.980;5.734;2023-05-23T17:33:49;102163.19;;;15.09;100.00
48790;BME280;41718;51.980;5.734;2023-05-23T17:38:51;102155.84;;;14.89;100.00
48790;BME280;41718;51.980;5.734;2023-05-23T17:43:55;102155.72;;;14.39;100.00
48790;BME280;41718;51.980;5.734;2023-05-23T17:48:57;102166.13;;;14.39;100.00
48790;BME280;41718;51.980;5.734;2023-05-23T17:53:58;102176.81;;;14.10;100.00
48790;BME280;41718;51.980;5.734;2023-05-23T17:59:02;102180.34;;;13.74;100.00
48790;BME280;41718;51.980;5.734;2023-05-23T18:04:04;102187.81;;;13.61;100.00
48790;BME280;41718;51.980;5.734;2023-05-23T18:09:06;102198.91;;;13.53;100.00
48790;BME280;41718;51.980;5.734;2023-05-23T18:14:07;102198.31;;;13.65;100.00
48790;BME280;41718;51.980;5.734;2023-05-23T18:19:09;102200.06;;;13.30;100.00
48790;BME280;41718;51.980;5.734;2023-05-23T18:24:11;102207.19;;;12.74;100.00
48790;BME280;41718;51.980;5.734;2023-05-23T18:29:12;102201.00;;;12.70;100.00
48790;BME280;41718;51.980;5.734;2023-05-23T18:34:14;102204.72;;;12.49;100.00
48790;BME280;41718;51.980;5.734;2023-05-23T18:39:15;102198.69;;;12.50;100.00
48790;BME280;41718;51.980;5.734;2023-05-23T18:44:17;102212.38;;;12.44;100.00
48790;BME280;41718;51.980;5.734;2023-05-23T18:49:21;102205.84;;;12.00;100.00
48790;BME280;41718;51.980;5.734;2023-05-23T18:54:23;102201.16;;;11.88;100.00
48790;BME280;41718;51.980;5.734;2023-05-23T18:59:25;102207.41;;;11.94;100.00
48790;BME280;41718;51.980;5.734;2023-05-23T19:04:26;102217.81;;;11.44;100.00
48790;BME280;41718;51.980;5.734;2023-05-23T19:09:28;102203.69;;;11.59;100.00
48790;BME280;41718;51.980;5.734;2023-05-23T19:14:29;102188.69;;;11.51;100.00
48790;BME280;41718;51.980;5.734;2023-05-23T19:19:32;102159.91;;;11.41;100.00
48790;BME280;41718;51.980;5.734;2023-05-23T19:24:35;102129.81;;;11.20;100.00
48790;BME280;41718;51.980;5.734;2023-05-23T19:29:37;102112.34;;;10.88;100.00
48790;BME280;41718;51.980;5.734;2023-05-23T19:34:39;102091.84;;;11.20;100.00
48790;BME280;41718;51.980;5.734;2023-05-23T19:39:40;102076.66;;;11.05;100.00
48790;BME280;41718;51.980;5.734;2023-05-23T19:44:46;102067.75;;;10.96;100.00
48790;BME280;41718;51.980;5.734;2023-05-23T19:49:47;102066.38;;;10.81;100.00
48790;BME280;41718;51.980;5.734;2023-05-23T19:54:49;102066.13;;;10.74;100.00
48790;BME280;41718;51.980;5.734;2023-05-23T19:59:50;102073.56;;;10.39;100.00
48790;BME280;41718;51.980;5.734;2023-05-23T20:04:52;102065.03;;;10.19;100.00
48790;BME280;41718;51.980;5.734;2023-05-23T20:09:54;102072.34;;;10.29;100.00
48790;BME280;41718;51.980;5.734;2023-05-23T20:14:55;102072.13;;;10.01;100.00
48790;BME280;41718;51.980;5.734;2023-05-23T20:19:57;102081.34;;;9.93;100.00
48790;BME280;41718;51.980;5.734;2023-05-23T20:24:59;102083.78;;;9.67;100.00
48790;BME280;41718;51.980;5.734;2023-05-23T20:30:01;102079.91;;;9.56;100.00
48790;BME280;41718;51.980;5.734;2023-05-23T20:35:03;102062.53;;;9.52;100.00
48790;BME280;41718;51.980;5.734;2023-05-23T20:40:05;102059.59;;;9.43;100.00
48790;BME280;41718;51.980;5.734;2023-05-23T20:45:07;102054.06;;;9.34;100.00
48790;BME280;41718;51.980;5.734;2023-05-23T20:50:10;102065.03;;;9.28;100.00
48790;BME280;41718;51.980;5.734;2023-05-23T20:55:13;102058.50;;;9.15;100.00
48790;BME280;41718;51.980;5.734;2023-05-23T21:00:15;102054.06;;;9.13;100.00
48790;BME280;41718;51.980;5.734;2023-05-23T21:05:17;102067.50;;;9.04;100.00
48790;BME280;41718;51.980;5.734;2023-05-23T21:10:18;102065.00;;;9.06;100.00
48790;BME280;41718;51.980;5.734;2023-05-23T21:15:20;102082.06;;;8.81;100.00
48790;BME280;41718;51.980;5.734;2023-05-23T21:20:21;102077.63;;;8.79;100.00
48790;BME280;41718;51.980;5.734;2023-05-23T21:25:23;102078.81;;;8.66;100.00
48790;BME280;41718;51.980;5.734;2023-05-23T21:30:24;102082.38;;;8.48;100.00
48790;BME280;41718;51.980;5.734;2023-05-23T21:35:26;102089.47;;;8.35;100.00
48790;BME280;41718;51.980;5.734;2023-05-23T21:40:28;102085.00;;;8.31;100.00
48790;BME280;41718;51.980;5.734;2023-05-23T21:45:29;102083.53;;;8.36;100.00
48790;BME280;41718;51.980;5.734;2023-05-23T21:50:31;102077.94;;;8.27;100.00
48790;BME280;41718;51.980;5.734;2023-05-23T21:55:32;102081.28;;;8.24;100.00
48790;BME280;41718;51.980;5.734;2023-05-23T22:00:34;102084.94;;;8.29;100.00
48790;BME280;41718;51.980;5.734;2023-05-23T22:05:36;102087.72;;;8.14;100.00
48790;BME280;41718;51.980;5.734;2023-05-23T22:10:37;102097.56;;;7.86;100.00
48790;BME280;41718;51.980;5.734;2023-05-23T22:15:40;102099.66;;;7.75;100.00
48790;BME280;41718;51.980;5.734;2023-05-23T22:20:42;102094.31;;;7.53;100.00
48790;BME280;41718;51.980;5.734;2023-05-23T22:25:44;102104.84;;;7.39;100.00
48790;BME280;41718;51.980;5.734;2023-05-23T22:30:46;102106.72;;;7.26;100.00
48790;BME280;41718;51.980;5.734;2023-05-23T22:35:47;102114.97;;;7.18;100.00
48790;BME280;41718;51.980;5.734;2023-05-23T22:40:49;102110.34;;;7.11;100.00
48790;BME280;41718;51.980;5.734;2023-05-23T22:45:50;102107.81;;;6.95;100.00
48790;BME280;41718;51.980;5.734;2023-05-23T22:50:52;102112.09;;;6.78;100.00
48790;BME280;41718;51.980;5.734;2023-05-23T22:55:57;102106.84;;;6.59;100.00
48790;BME280;41718;51.980;5.734;2023-05-23T23:00:58;102112.38;;;6.67;100.00
48790;BME280;41718;51.980;5.734;2023-05-23T23:06:00;102110.63;;;6.49;100.00
48790;BME280;41718;51.980;5.734;2023-05-23T23:11:02;102110.94;;;6.39;100.00
48790;BME280;41718;51.980;5.734;2023-05-23T23:16:04;102103.66;;;6.30;100.00
48790;BME280;41718;51.980;5.734;2023-05-23T23:21:06;102099.78;;;6.22;100.00
48790;BME280;41718;51.980;5.734;2023-05-23T23:26:08;102099.84;;;6.24;100.00
48790;BME280;41718;51.980;5.734;2023-05-23T23:31:09;102098.88;;;6.22;100.00
48790;BME280;41718;51.980;5.734;2023-05-23T23:36:11;102092.47;;;5.97;100.00
48790;BME280;41718;51.980;5.734;2023-05-23T23:41:12;102094.03;;;5.95;100.00
48790;BME280;41718;51.980;5.734;2023-05-23T23:46:14;102099.91;;;5.93;100.00
48790;BME280;41718;51.980;5.734;2023-05-23T23:51:15;102088.63;;;5.74;100.00
48790;BME280;41718;51.980;5.734;2023-05-23T23:56:17;102088.06;;;5.80;100.00
